createdAt,value
2023-03-31T00:01:01.056Z,90
2023-03-31T00:02:07.776Z,77
2023-03-31T00:03:14.611Z,88
2023-03-31T00:04:21.372Z,68
2023-03-31T00:05:28.133Z,81
2023-03-31T00:06:35.697Z,85
2023-03-31T00:07:41.632Z,92
2023-03-31T00:08:48.420Z,93
2023-03-31T00:10:03.953Z,84
2023-03-31T00:11:02.276Z,69
2023-03-31T00:12:08.995Z,86
2023-03-31T00:13:18.693Z,78
2023-03-31T00:14:25.490Z,67
2023-03-31T00:15:32.308Z,72
2023-03-31T00:16:39.097Z,79
2023-03-31T00:17:46.030Z,67
2023-03-31T00:18:52.801Z,83
2023-03-31T00:19:59.592Z,89
2023-03-31T00:21:06.450Z,86
2023-03-31T00:22:15.887Z,83
2023-03-31T00:23:22.657Z,80
2023-03-31T00:24:29.487Z,82
2023-03-31T00:25:36.411Z,83
2023-03-31T00:26:43.172Z,84
2023-03-31T00:27:50.141Z,83
2023-03-31T00:28:56.916Z,82
2023-03-31T00:30:03.786Z,86
2023-03-31T00:31:10.999Z,86
2023-03-31T00:32:17.781Z,85
2023-03-31T00:33:24.536Z,85
2023-03-31T00:34:31.318Z,83
2023-03-31T00:35:38.061Z,81
2023-03-31T00:36:44.889Z,84
2023-03-31T00:37:51.585Z,82
2023-03-31T00:38:58.348Z,84
2023-03-31T00:40:05.087Z,81
2023-03-31T00:41:14.660Z,83
2023-03-31T00:42:21.465Z,76
2023-03-31T00:43:28.288Z,78
2023-03-31T00:44:38.130Z,77
2023-03-31T00:45:52.542Z,77
2023-03-31T00:46:59.221Z,83
2023-03-31T00:48:11.055Z,85
2023-03-31T00:49:17.852Z,84
2023-03-31T00:50:27.289Z,79
2023-03-31T00:51:34.229Z,93
2023-03-31T00:52:41.026Z,83
2023-03-31T00:53:47.773Z,85
2023-03-31T00:54:54.571Z,82
2023-03-31T00:56:04.568Z,77
2023-03-31T00:57:11.016Z,79
2023-03-31T00:58:17.772Z,78
2023-03-31T00:59:24.559Z,81
2023-03-31T01:00:31.471Z,78
2023-03-31T01:01:38.304Z,75
2023-03-31T01:02:44.977Z,77
2023-03-31T01:03:52.028Z,79
2023-03-31T01:04:58.853Z,74
2023-03-31T01:06:06.017Z,72
2023-03-31T01:07:12.550Z,78
2023-03-31T01:08:21.963Z,85
2023-03-31T01:09:28.692Z,67
2023-03-31T01:10:35.476Z,68
2023-03-31T01:11:45.417Z,69
2023-03-31T01:12:52.337Z,70
2023-03-31T01:13:59.059Z,74
2023-03-31T01:15:05.817Z,72
2023-03-31T01:16:12.749Z,73
2023-03-31T01:17:19.798Z,78
2023-03-31T01:18:26.404Z,82
2023-03-31T01:19:33.089Z,79
2023-03-31T01:20:42.685Z,75
2023-03-31T01:21:57.392Z,83
2023-03-31T01:23:12.018Z,81
2023-03-31T01:24:26.805Z,81
2023-03-31T01:25:43.649Z,85
2023-03-31T01:26:55.501Z,84
2023-03-31T01:28:04.819Z,84
2023-03-31T01:29:16.657Z,81
2023-03-31T01:30:23.413Z,89
2023-03-31T01:31:32.796Z,85
2023-03-31T01:32:45.073Z,86
2023-03-31T01:33:59.806Z,95
2023-03-31T01:35:16.668Z,94
2023-03-31T01:36:28.542Z,94
2023-03-31T01:37:40.365Z,91
2023-03-31T01:38:52.241Z,91
2023-03-31T01:40:09.175Z,95
2023-03-31T01:41:23.561Z,90
2023-03-31T01:42:35.476Z,95
2023-03-31T01:43:48.435Z,88
2023-03-31T01:44:58.048Z,85
2023-03-31T01:46:05.086Z,90
2023-03-31T01:47:19.410Z,97
2023-03-31T01:48:29.213Z,92
2023-03-31T01:49:36.003Z,90
2023-03-31T01:50:52.939Z,93
2023-03-31T01:52:07.956Z,84
2023-03-31T01:53:22.684Z,89
2023-03-31T01:54:37.231Z,82
2023-03-31T01:55:49.170Z,86
2023-03-31T01:56:58.555Z,84
2023-03-31T01:58:05.339Z,83
2023-03-31T01:59:17.158Z,82
2023-03-31T02:00:24.066Z,85
2023-03-31T02:01:31.427Z,90
2023-03-31T02:02:47.863Z,77
2023-03-31T02:03:57.224Z,75
2023-03-31T02:05:04.001Z,81
2023-03-31T02:06:15.942Z,82
2023-03-31T02:07:22.750Z,80
2023-03-31T02:08:34.504Z,77
2023-03-31T02:09:44.158Z,79
2023-03-31T02:10:53.644Z,75
2023-03-31T02:12:00.385Z,73
2023-03-31T02:13:07.282Z,72
2023-03-31T02:14:14.077Z,73
2023-03-31T02:15:23.457Z,70
2023-03-31T02:16:30.264Z,74
2023-03-31T02:17:36.955Z,72
2023-03-31T02:18:43.727Z,75
2023-03-31T02:19:50.552Z,68
2023-03-31T02:20:57.296Z,72
2023-03-31T02:22:04.050Z,71
2023-03-31T02:23:10.753Z,72
2023-03-31T02:24:17.599Z,74
2023-03-31T02:25:24.476Z,74
2023-03-31T02:26:34.162Z,70
2023-03-31T02:27:40.890Z,69
2023-03-31T02:28:47.715Z,66
2023-03-31T02:29:54.462Z,66
2023-03-31T02:31:01.270Z,66
2023-03-31T02:32:13.173Z,63
2023-03-31T02:33:27.701Z,63
2023-03-31T02:34:34.482Z,64
2023-03-31T02:35:41.377Z,53
2023-03-31T02:36:48.116Z,62
2023-03-31T02:37:55.014Z,62
2023-03-31T02:39:01.772Z,61
2023-03-31T02:40:08.513Z,55
2023-03-31T02:41:15.253Z,62
2023-03-31T02:42:22.177Z,57
2023-03-31T02:43:29.025Z,59
2023-03-31T02:44:35.760Z,61
2023-03-31T02:45:42.591Z,55
2023-03-31T02:46:49.319Z,67
2023-03-31T02:47:56.128Z,62
2023-03-31T02:49:02.978Z,52
2023-03-31T02:50:09.691Z,58
2023-03-31T02:51:16.466Z,58
2023-03-31T02:52:28.279Z,63
2023-03-31T02:53:42.695Z,60
2023-03-31T02:54:54.539Z,59
2023-03-31T02:56:06.517Z,62
2023-03-31T02:57:21.043Z,57
2023-03-31T02:58:32.818Z,49
2023-03-31T02:59:44.630Z,50
2023-03-31T03:01:01.677Z,51
2023-03-31T03:02:18.704Z,43
2023-03-31T03:03:35.558Z,49
2023-03-31T03:04:45.116Z,48
2023-03-31T03:06:00.810Z,41
2023-03-31T03:07:14.365Z,49
2023-03-31T03:08:29.363Z,49
2023-03-31T03:09:41.140Z,43
2023-03-31T03:10:50.592Z,41
2023-03-31T03:12:05.405Z,52
2023-03-31T03:13:15.093Z,47
2023-03-31T03:14:32.192Z,41
2023-03-31T03:15:44.060Z,46
2023-03-31T03:16:50.884Z,49
2023-03-31T03:17:57.732Z,50
2023-03-31T03:19:04.489Z,51
2023-03-31T03:20:11.261Z,51
2023-03-31T03:21:18.069Z,43
2023-03-31T03:22:24.933Z,46
2023-03-31T03:23:31.674Z,37
2023-03-31T03:24:38.421Z,36
2023-03-31T03:25:45.177Z,41
2023-03-31T03:26:51.947Z,38
2023-03-31T03:27:58.802Z,37
2023-03-31T03:29:05.553Z,33
2023-03-31T03:30:12.327Z,35
2023-03-31T03:31:19.050Z,39
2023-03-31T03:32:25.781Z,38
2023-03-31T03:33:32.688Z,45
2023-03-31T03:34:39.427Z,38
2023-03-31T03:35:46.290Z,39
2023-03-31T03:36:52.938Z,41
2023-03-31T03:37:59.720Z,43
2023-03-31T03:39:06.430Z,39
2023-03-31T03:40:13.177Z,41
2023-03-31T03:41:19.936Z,36
2023-03-31T03:42:26.705Z,40
2023-03-31T03:43:33.439Z,45
2023-03-31T03:44:40.256Z,46
2023-03-31T03:45:47.147Z,41
2023-03-31T03:46:53.895Z,47
2023-03-31T03:48:00.791Z,48
2023-03-31T03:49:07.517Z,40
2023-03-31T03:50:16.060Z,35
2023-03-31T03:51:21.285Z,35
2023-03-31T03:52:28.010Z,40
2023-03-31T03:53:34.800Z,42
2023-03-31T03:54:41.618Z,40
2023-03-31T03:55:48.472Z,46
2023-03-31T03:56:55.305Z,44
2023-03-31T03:58:02.074Z,41
2023-03-31T03:59:08.770Z,39
2023-03-31T04:00:15.625Z,41
2023-03-31T04:01:22.750Z,42
2023-03-31T04:02:29.579Z,38
2023-03-31T04:03:36.250Z,52
2023-03-31T04:04:43.104Z,45
2023-03-31T04:05:49.728Z,45
2023-03-31T04:06:56.481Z,45
2023-03-31T04:08:03.338Z,47
2023-03-31T04:09:10.074Z,40
2023-03-31T04:10:16.846Z,49
2023-03-31T04:11:23.542Z,48
2023-03-31T04:12:30.242Z,44
2023-03-31T04:13:39.785Z,51
2023-03-31T04:14:46.571Z,41
2023-03-31T04:15:53.287Z,44
2023-03-31T04:17:00.058Z,45
2023-03-31T04:18:06.783Z,43
2023-03-31T04:19:16.299Z,52
2023-03-31T04:20:23.022Z,43
2023-03-31T04:21:32.879Z,44
2023-03-31T04:22:39.841Z,41
2023-03-31T04:23:46.927Z,49
2023-03-31T04:24:56.594Z,45
2023-03-31T04:26:03.451Z,46
2023-03-31T04:27:10.106Z,49
2023-03-31T04:28:16.841Z,51
2023-03-31T04:29:23.661Z,46
2023-03-31T04:30:30.403Z,52
2023-03-31T04:31:37.148Z,46
2023-03-31T04:32:43.936Z,49
2023-03-31T04:33:50.735Z,47
2023-03-31T04:34:57.557Z,50
2023-03-31T04:36:04.873Z,53
2023-03-31T04:37:16.393Z,53
2023-03-31T04:38:23.247Z,50
2023-03-31T04:39:33.126Z,46
2023-03-31T04:40:39.944Z,46
2023-03-31T04:41:46.676Z,49
2023-03-31T04:42:53.415Z,54
2023-03-31T04:44:00.221Z,54
2023-03-31T04:45:07.104Z,55
2023-03-31T04:46:14.113Z,52
2023-03-31T04:47:20.882Z,60
2023-03-31T04:48:27.697Z,59
2023-03-31T04:49:34.420Z,58
2023-03-31T04:50:41.183Z,58
2023-03-31T04:51:48.029Z,57
2023-03-31T04:52:54.840Z,50
2023-03-31T04:54:01.622Z,56
2023-03-31T04:55:08.354Z,47
2023-03-31T04:56:15.217Z,57
2023-03-31T04:57:22.134Z,57
2023-03-31T04:58:28.815Z,55
2023-03-31T04:59:35.615Z,57
2023-03-31T05:00:42.497Z,55
2023-03-31T05:01:49.744Z,48
2023-03-31T05:02:56.560Z,52
2023-03-31T05:04:03.283Z,49
2023-03-31T05:05:10.092Z,50
2023-03-31T05:06:16.887Z,54
2023-03-31T05:07:23.687Z,53
2023-03-31T05:08:30.614Z,53
2023-03-31T05:09:37.348Z,56
2023-03-31T05:10:44.071Z,47
2023-03-31T05:11:50.803Z,54
2023-03-31T05:12:57.531Z,51
2023-03-31T05:14:04.387Z,50
2023-03-31T05:15:11.083Z,53
2023-03-31T05:16:17.850Z,50
2023-03-31T05:17:24.567Z,42
2023-03-31T05:18:31.349Z,51
2023-03-31T05:19:38.213Z,48
2023-03-31T05:20:44.981Z,44
2023-03-31T05:21:51.703Z,55
2023-03-31T05:22:58.506Z,49
2023-03-31T05:24:05.305Z,45
2023-03-31T05:25:12.328Z,49
2023-03-31T05:26:19.187Z,37
2023-03-31T05:27:25.880Z,40
2023-03-31T05:28:32.724Z,38
2023-03-31T05:29:39.551Z,36
2023-03-31T05:30:46.439Z,39
2023-03-31T05:31:53.310Z,37
2023-03-31T05:32:59.992Z,36
2023-03-31T05:34:06.684Z,34
2023-03-31T05:35:13.481Z,38
2023-03-31T05:36:20.497Z,36
2023-03-31T05:37:27.311Z,39
2023-03-31T05:38:34.097Z,32
2023-03-31T05:39:40.783Z,28
2023-03-31T05:40:47.604Z,27
2023-03-31T05:41:54.405Z,31
2023-03-31T05:43:01.205Z,30
2023-03-31T05:44:07.992Z,26
2023-03-31T05:45:14.697Z,25
2023-03-31T05:46:21.603Z,30
2023-03-31T05:47:28.389Z,29
2023-03-31T05:48:35.189Z,25
2023-03-31T05:49:41.910Z,28
2023-03-31T05:50:48.689Z,26
2023-03-31T05:51:55.437Z,25
2023-03-31T05:53:02.237Z,29
2023-03-31T05:54:09.051Z,25
2023-03-31T05:55:15.851Z,25
2023-03-31T05:56:22.686Z,26
2023-03-31T05:57:29.440Z,36
2023-03-31T05:58:36.371Z,41
2023-03-31T05:59:43.225Z,39
2023-03-31T06:00:50.027Z,25
2023-03-31T06:02:04.780Z,30
2023-03-31T06:03:11.706Z,47
2023-03-31T06:04:18.523Z,36
2023-03-31T06:05:25.266Z,32
2023-03-31T06:06:32.058Z,37
2023-03-31T06:07:38.880Z,46
2023-03-31T06:08:45.689Z,25
2023-03-31T06:09:52.512Z,51
2023-03-31T06:11:00.927Z,49
2023-03-31T06:12:07.964Z,34
2023-03-31T06:13:14.744Z,32
2023-03-31T06:14:21.514Z,43
2023-03-31T06:15:28.360Z,44
2023-03-31T06:16:35.193Z,43
2023-03-31T06:17:41.913Z,31
2023-03-31T06:18:48.845Z,25
2023-03-31T06:19:55.728Z,34
2023-03-31T06:21:02.504Z,28
2023-03-31T06:22:09.332Z,37
2023-03-31T06:23:16.036Z,31
2023-03-31T06:24:22.896Z,29
2023-03-31T06:25:34.589Z,34
2023-03-31T06:26:36.412Z,32
2023-03-31T06:27:43.474Z,25
2023-03-31T06:28:50.034Z,25
2023-03-31T06:29:56.766Z,27
2023-03-31T06:31:04.045Z,25
2023-03-31T06:32:10.573Z,35
2023-03-31T06:33:17.318Z,28
2023-03-31T06:34:24.061Z,25
2023-03-31T06:35:30.969Z,34
2023-03-31T06:36:37.766Z,27
2023-03-31T06:37:44.615Z,35
2023-03-31T06:38:51.421Z,28
2023-03-31T06:39:58.163Z,25
2023-03-31T06:41:05.154Z,26
2023-03-31T06:42:11.762Z,34
2023-03-31T06:43:18.576Z,28
2023-03-31T06:44:25.448Z,27
2023-03-31T06:45:32.130Z,29
2023-03-31T06:46:39.021Z,25
2023-03-31T06:47:45.807Z,38
2023-03-31T06:48:52.691Z,28
2023-03-31T06:49:59.513Z,28
2023-03-31T06:51:06.282Z,32
2023-03-31T06:52:13.070Z,37
2023-03-31T06:53:19.937Z,28
2023-03-31T06:54:26.713Z,29
2023-03-31T06:55:33.576Z,30
2023-03-31T06:56:40.253Z,25
2023-03-31T06:57:46.957Z,27
2023-03-31T06:58:53.772Z,25
2023-03-31T07:00:00.651Z,32
2023-03-31T07:01:08.183Z,27
2023-03-31T07:02:14.402Z,30
2023-03-31T07:03:21.239Z,32
2023-03-31T07:04:28.051Z,25
2023-03-31T07:05:34.949Z,34
2023-03-31T07:06:41.717Z,27
2023-03-31T07:07:48.478Z,30
2023-03-31T07:08:55.283Z,25
2023-03-31T07:10:02.053Z,41
2023-03-31T07:11:09.510Z,51
2023-03-31T07:12:16.036Z,37
2023-03-31T07:13:22.746Z,37
2023-03-31T07:14:29.502Z,30
2023-03-31T07:15:36.265Z,28
2023-03-31T07:16:43.212Z,27
2023-03-31T07:17:49.939Z,25
2023-03-31T07:18:56.606Z,29
2023-03-31T07:20:03.314Z,25
2023-03-31T07:21:10.698Z,30
2023-03-31T07:22:17.316Z,40
2023-03-31T07:23:24.118Z,33
2023-03-31T07:24:30.830Z,36
2023-03-31T07:25:37.564Z,34
2023-03-31T07:26:44.304Z,33
2023-03-31T07:27:51.130Z,28
2023-03-31T07:28:57.938Z,25
2023-03-31T07:30:04.747Z,33
2023-03-31T07:31:11.753Z,28
2023-03-31T07:32:18.643Z,36
2023-03-31T07:33:25.326Z,36
2023-03-31T07:34:32.166Z,29
2023-03-31T07:35:39.013Z,25
2023-03-31T07:36:45.827Z,31
2023-03-31T07:37:52.487Z,35
2023-03-31T07:38:59.363Z,28
2023-03-31T07:40:06.189Z,25
2023-03-31T07:41:13.058Z,28
2023-03-31T07:42:19.745Z,25
2023-03-31T07:43:26.502Z,38
2023-03-31T07:44:33.401Z,48
2023-03-31T07:45:40.326Z,48
2023-03-31T07:46:47.085Z,37
2023-03-31T07:47:53.941Z,46
2023-03-31T07:49:00.761Z,40
2023-03-31T07:50:07.545Z,38
2023-03-31T07:51:14.474Z,38
2023-03-31T07:52:21.224Z,27
2023-03-31T07:53:27.956Z,32
2023-03-31T07:54:34.752Z,27
2023-03-31T07:55:41.560Z,34
2023-03-31T07:56:48.506Z,32
2023-03-31T07:57:55.203Z,30
2023-03-31T07:59:01.987Z,34
2023-03-31T08:00:08.765Z,27
2023-03-31T08:01:15.868Z,38
2023-03-31T08:02:22.863Z,42
2023-03-31T08:03:29.566Z,33
2023-03-31T08:04:36.514Z,27
2023-03-31T08:05:43.117Z,34
2023-03-31T08:06:49.853Z,27
2023-03-31T08:07:56.547Z,40
2023-03-31T08:09:03.342Z,35
2023-03-31T08:10:10.108Z,43
2023-03-31T08:11:16.871Z,33
2023-03-31T08:12:23.601Z,32
2023-03-31T08:13:30.545Z,31
2023-03-31T08:14:40.903Z,39
2023-03-31T08:15:44.188Z,34
2023-03-31T08:16:50.882Z,25
2023-03-31T08:17:57.621Z,34
2023-03-31T08:19:04.448Z,28
2023-03-31T08:20:11.251Z,25
2023-03-31T08:21:17.982Z,42
2023-03-31T08:22:24.776Z,47
2023-03-31T08:23:31.532Z,30
2023-03-31T08:24:38.339Z,29
2023-03-31T08:25:45.195Z,30
2023-03-31T08:26:52.048Z,32
2023-03-31T08:27:58.768Z,25
2023-03-31T08:29:05.531Z,31
2023-03-31T08:30:12.311Z,25
2023-03-31T08:31:19.418Z,25
2023-03-31T08:32:26.150Z,31
2023-03-31T08:33:32.848Z,32
2023-03-31T08:34:39.616Z,38
2023-03-31T08:35:46.413Z,35
2023-03-31T08:36:53.094Z,30
2023-03-31T08:37:59.908Z,36
2023-03-31T08:39:06.712Z,25
2023-03-31T08:40:13.450Z,35
2023-03-31T08:41:20.227Z,29
2023-03-31T08:42:37.171Z,33
2023-03-31T08:43:49.713Z,27
2023-03-31T08:44:56.423Z,26
2023-03-31T08:46:13.440Z,25
2023-03-31T08:47:20.278Z,27
2023-03-31T08:48:27.135Z,34
2023-03-31T08:49:33.901Z,34
2023-03-31T08:50:43.273Z,34
2023-03-31T08:51:50.002Z,25
2023-03-31T08:52:56.740Z,32
2023-03-31T08:54:13.169Z,25
2023-03-31T08:55:20.978Z,31
2023-03-31T08:56:27.681Z,27
2023-03-31T08:57:37.441Z,34
2023-03-31T08:58:49.656Z,25
2023-03-31T08:59:56.376Z,26
2023-03-31T09:01:03.282Z,34
2023-03-31T09:02:12.752Z,29
2023-03-31T09:03:29.748Z,33
2023-03-31T09:04:41.519Z,29
2023-03-31T09:06:00.435Z,37
2023-03-31T09:07:02.710Z,30
2023-03-31T09:08:14.605Z,25
2023-03-31T09:09:31.560Z,27
2023-03-31T09:10:43.448Z,33
2023-03-31T09:12:00.311Z,43
2023-03-31T09:13:07.056Z,29
2023-03-31T09:14:13.881Z,25
2023-03-31T09:15:28.588Z,25
2023-03-31T09:16:40.444Z,44
2023-03-31T09:17:52.396Z,46
2023-03-31T09:18:58.977Z,47
2023-03-31T09:20:05.833Z,40
2023-03-31T09:21:17.679Z,34
2023-03-31T09:22:29.612Z,35
2023-03-31T09:23:36.422Z,31
2023-03-31T09:24:43.105Z,34
2023-03-31T09:25:52.657Z,31
2023-03-31T09:26:59.499Z,33
2023-03-31T09:28:09.273Z,34
2023-03-31T09:29:24.301Z,40
2023-03-31T09:30:41.231Z,38
2023-03-31T09:31:48.017Z,40
2023-03-31T09:32:54.755Z,32
2023-03-31T09:34:11.594Z,41
2023-03-31T09:35:18.410Z,30
2023-03-31T09:36:25.256Z,36
2023-03-31T09:37:31.914Z,40
2023-03-31T09:38:38.666Z,41
2023-03-31T09:39:45.429Z,42
2023-03-31T09:40:52.411Z,43
2023-03-31T09:41:59.143Z,48
2023-03-31T09:43:05.923Z,43
2023-03-31T09:44:12.661Z,39
2023-03-31T09:45:29.615Z,41
2023-03-31T09:46:36.396Z,48
2023-03-31T09:47:43.203Z,39
2023-03-31T09:48:49.815Z,46
2023-03-31T09:50:01.679Z,45
2023-03-31T09:51:08.688Z,43
2023-03-31T09:52:18.236Z,48
2023-03-31T09:53:30.731Z,52
2023-03-31T09:54:40.330Z,46
2023-03-31T09:55:49.852Z,48
2023-03-31T09:56:56.601Z,48
2023-03-31T09:58:03.412Z,50
2023-03-31T09:59:10.234Z,47
2023-03-31T10:00:17.156Z,44
2023-03-31T10:01:24.148Z,41
2023-03-31T10:02:30.798Z,40
2023-03-31T10:03:40.252Z,30
2023-03-31T10:04:54.999Z,43
2023-03-31T10:06:01.771Z,31
2023-03-31T10:07:14.371Z,30
2023-03-31T10:08:21.235Z,32
2023-03-31T10:09:30.525Z,38
2023-03-31T10:10:37.327Z,43
2023-03-31T10:11:44.127Z,40
2023-03-31T10:12:56.064Z,40
2023-03-31T10:14:02.959Z,40
2023-03-31T10:15:14.923Z,42
2023-03-31T10:16:24.807Z,38
2023-03-31T10:17:38.032Z,43
2023-03-31T10:18:38.426Z,33
2023-03-31T10:19:45.068Z,39
2023-03-31T10:20:54.907Z,31
2023-03-31T10:22:01.692Z,25
2023-03-31T10:23:13.466Z,25
2023-03-31T10:24:20.337Z,25
2023-03-31T10:25:27.168Z,28
2023-03-31T10:26:33.971Z,26
2023-03-31T10:27:40.790Z,32
2023-03-31T10:28:47.574Z,34
2023-03-31T10:29:54.329Z,26
2023-03-31T10:31:01.302Z,33
2023-03-31T10:32:08.029Z,35
2023-03-31T10:33:22.922Z,39
2023-03-31T10:34:26.668Z,40
2023-03-31T10:35:33.492Z,33
2023-03-31T10:36:40.257Z,27
2023-03-31T10:37:49.834Z,28
2023-03-31T10:38:59.525Z,29
2023-03-31T10:40:09.163Z,41
2023-03-31T10:41:21.129Z,28
2023-03-31T10:42:30.626Z,25
2023-03-31T10:43:37.391Z,27
2023-03-31T10:44:44.199Z,36
2023-03-31T10:45:51.014Z,26
2023-03-31T10:46:57.925Z,34
2023-03-31T10:48:07.489Z,25
2023-03-31T10:49:21.910Z,28
2023-03-31T10:50:28.661Z,29
2023-03-31T10:51:35.526Z,29
2023-03-31T10:52:42.282Z,33
2023-03-31T10:53:49.101Z,35
2023-03-31T10:54:55.793Z,28
2023-03-31T10:56:02.690Z,32
2023-03-31T10:57:12.622Z,29
2023-03-31T10:58:19.603Z,25
2023-03-31T10:59:31.477Z,25
2023-03-31T11:00:46.043Z,27
2023-03-31T11:02:00.848Z,31
2023-03-31T11:03:17.379Z,48
2023-03-31T11:04:29.253Z,40
2023-03-31T11:05:41.037Z,25
2023-03-31T11:06:55.816Z,28
2023-03-31T11:08:12.780Z,31
2023-03-31T11:09:29.704Z,31
2023-03-31T11:10:41.647Z,25
2023-03-31T11:11:53.389Z,30
2023-03-31T11:13:05.220Z,38
2023-03-31T11:14:22.267Z,28
2023-03-31T11:15:39.238Z,27
2023-03-31T11:16:51.053Z,49
2023-03-31T11:18:08.095Z,25
2023-03-31T11:19:24.892Z,29
2023-03-31T11:20:34.352Z,26
2023-03-31T11:21:51.216Z,25
2023-03-31T11:23:00.938Z,42
2023-03-31T11:24:15.402Z,45
2023-03-31T11:25:32.369Z,30
2023-03-31T11:26:49.272Z,37
2023-03-31T11:28:01.209Z,44
2023-03-31T11:29:18.044Z,38
2023-03-31T11:30:32.729Z,39
2023-03-31T11:31:42.042Z,37
2023-03-31T11:32:54.038Z,34
2023-03-31T11:34:10.824Z,39
2023-03-31T11:35:17.564Z,32
2023-03-31T11:36:30.117Z,25
2023-03-31T11:37:41.937Z,30
2023-03-31T11:38:53.773Z,35
2023-03-31T11:40:03.507Z,30
2023-03-31T11:41:15.395Z,33
2023-03-31T11:42:24.922Z,61
2023-03-31T11:43:31.663Z,42
2023-03-31T11:44:43.578Z,44
2023-03-31T11:45:50.445Z,41
2023-03-31T11:47:02.362Z,33
2023-03-31T11:48:14.409Z,27
2023-03-31T11:49:31.259Z,41
2023-03-31T11:50:40.605Z,28
2023-03-31T11:51:47.427Z,32
2023-03-31T11:52:57.091Z,26
2023-03-31T11:54:03.987Z,38
2023-03-31T11:55:10.889Z,59
2023-03-31T11:56:20.663Z,68
2023-03-31T11:57:27.676Z,69
2023-03-31T11:58:36.816Z,60
2023-03-31T11:59:43.597Z,42
2023-03-31T12:00:50.421Z,39
2023-03-31T12:01:57.187Z,40
2023-03-31T12:03:09.100Z,30
2023-03-31T12:04:18.675Z,41
2023-03-31T12:05:33.107Z,38
2023-03-31T12:06:39.791Z,39
2023-03-31T12:07:46.549Z,36
2023-03-31T12:08:56.220Z,36
2023-03-31T12:10:10.851Z,35
2023-03-31T12:11:25.772Z,25
2023-03-31T12:12:40.775Z,33
2023-03-31T12:13:50.178Z,31
2023-03-31T12:14:56.963Z,32
2023-03-31T12:16:06.680Z,27
2023-03-31T12:17:16.241Z,41
2023-03-31T12:18:31.075Z,32
2023-03-31T12:19:37.820Z,48
2023-03-31T12:20:54.815Z,49
2023-03-31T12:22:01.621Z,54
2023-03-31T12:23:13.479Z,33
2023-03-31T12:24:23.140Z,38
2023-03-31T12:25:29.929Z,25
2023-03-31T12:26:36.780Z,38
2023-03-31T12:27:53.668Z,34
2023-03-31T12:29:00.532Z,52
2023-03-31T12:30:10.196Z,48
2023-03-31T12:31:20.100Z,45
2023-03-31T12:32:26.904Z,38
2023-03-31T12:33:33.654Z,39
2023-03-31T12:34:43.458Z,46
2023-03-31T12:35:55.410Z,50
2023-03-31T12:37:07.319Z,43
2023-03-31T12:38:19.255Z,41
2023-03-31T12:39:36.095Z,35
2023-03-31T12:40:50.557Z,40
2023-03-31T12:42:02.409Z,40
2023-03-31T12:43:17.030Z,38
2023-03-31T12:44:31.894Z,39
2023-03-31T12:45:46.346Z,62
2023-03-31T12:46:58.183Z,63
2023-03-31T12:48:12.767Z,69
2023-03-31T12:49:27.608Z,72
2023-03-31T12:50:44.639Z,81
2023-03-31T12:51:57.215Z,96
2023-03-31T12:53:09.047Z,105
2023-03-31T12:54:18.556Z,98
2023-03-31T12:55:35.367Z,103
2023-03-31T12:56:47.831Z,100
2023-03-31T12:58:04.747Z,107
2023-03-31T12:59:21.705Z,106
2023-03-31T13:00:33.751Z,114
2023-03-31T13:01:40.886Z,114
2023-03-31T13:02:57.596Z,118
2023-03-31T13:04:16.289Z,111
2023-03-31T13:05:21.300Z,106
2023-03-31T13:06:38.239Z,116
2023-03-31T13:07:45.075Z,115
2023-03-31T13:08:51.962Z,111
2023-03-31T13:10:06.704Z,121
2023-03-31T13:11:21.212Z,128
2023-03-31T13:12:38.206Z,124
2023-03-31T13:14:59.748Z,134
2023-03-31T13:16:06.541Z,131
2023-03-31T13:17:13.376Z,126
2023-03-31T13:18:27.709Z,132
2023-03-31T13:19:34.555Z,124
2023-03-31T13:20:41.390Z,121
2023-03-31T13:21:49.109Z,115
2023-03-31T13:22:57.936Z,114
2023-03-31T13:24:09.771Z,119
2023-03-31T13:25:16.530Z,126
2023-03-31T13:26:33.379Z,124
2023-03-31T13:27:40.262Z,127
2023-03-31T13:28:52.100Z,125
2023-03-31T13:30:03.885Z,141
2023-03-31T13:31:10.832Z,143
2023-03-31T13:32:17.633Z,140
2023-03-31T13:33:27.170Z,137
2023-03-31T13:34:39.079Z,140
2023-03-31T13:35:46.138Z,138
2023-03-31T13:36:57.943Z,148
2023-03-31T13:38:12.651Z,147
2023-03-31T13:39:27.365Z,143
2023-03-31T13:40:34.156Z,139
2023-03-31T13:41:51.064Z,146
2023-03-31T13:43:05.664Z,146
2023-03-31T13:44:20.219Z,151
2023-03-31T13:45:34.803Z,156
2023-03-31T13:46:46.648Z,155
2023-03-31T13:48:03.688Z,155
2023-03-31T13:49:20.517Z,150
2023-03-31T13:50:30.045Z,159
2023-03-31T13:51:47.109Z,160
2023-03-31T13:52:58.981Z,169
2023-03-31T13:54:10.820Z,149
2023-03-31T13:55:23.061Z,148
2023-03-31T13:56:37.847Z,163
2023-03-31T13:57:54.648Z,160
2023-03-31T13:59:06.575Z,162
2023-03-31T14:00:18.486Z,157
2023-03-31T14:01:32.981Z,157
2023-03-31T14:02:47.556Z,136
2023-03-31T14:03:57.153Z,127
2023-03-31T14:05:11.852Z,129
2023-03-31T14:06:23.768Z,124
2023-03-31T14:07:40.649Z,107
2023-03-31T14:08:47.406Z,104
2023-03-31T14:09:56.845Z,85
2023-03-31T14:11:03.677Z,83
2023-03-31T14:12:20.571Z,80
2023-03-31T14:13:35.153Z,74
2023-03-31T14:14:41.989Z,72
2023-03-31T14:15:48.781Z,71
2023-03-31T14:17:00.601Z,65
2023-03-31T14:18:07.402Z,63
2023-03-31T14:19:14.112Z,53
2023-03-31T14:20:25.957Z,54
2023-03-31T14:21:32.721Z,61
2023-03-31T14:22:44.547Z,64
2023-03-31T14:23:59.407Z,51
2023-03-31T14:25:11.228Z,52
2023-03-31T14:26:20.727Z,46
2023-03-31T14:27:37.998Z,50
2023-03-31T14:28:50.567Z,44
2023-03-31T14:30:02.489Z,43
2023-03-31T14:31:09.655Z,39
2023-03-31T14:32:21.190Z,38
2023-03-31T14:33:32.986Z,28
2023-03-31T14:34:49.883Z,30
2023-03-31T14:36:01.848Z,39
2023-03-31T14:37:13.594Z,27
2023-03-31T14:38:20.436Z,26
2023-03-31T14:39:27.240Z,29
2023-03-31T14:40:33.988Z,30
2023-03-31T14:41:40.708Z,27
2023-03-31T14:42:47.534Z,25
2023-03-31T14:43:54.403Z,28
2023-03-31T14:45:01.225Z,34
2023-03-31T14:46:08.283Z,32
2023-03-31T14:47:14.974Z,30
2023-03-31T14:48:24.803Z,34
2023-03-31T14:49:31.628Z,32
2023-03-31T14:50:38.512Z,28
2023-03-31T14:51:45.301Z,34
2023-03-31T14:52:54.670Z,31
2023-03-31T14:54:01.449Z,29
2023-03-31T14:55:08.366Z,32
2023-03-31T14:56:18.063Z,32
2023-03-31T14:57:25.027Z,36
2023-03-31T14:58:34.382Z,26
2023-03-31T14:59:41.303Z,34
2023-03-31T15:00:48.193Z,33
2023-03-31T15:01:54.933Z,33
2023-03-31T15:03:01.787Z,25
2023-03-31T15:04:08.576Z,30
2023-03-31T15:05:15.365Z,27
2023-03-31T15:06:29.780Z,25
2023-03-31T15:07:36.590Z,29
2023-03-31T15:08:43.475Z,29
2023-03-31T15:09:50.238Z,27
2023-03-31T15:11:02.238Z,27
2023-03-31T15:12:03.751Z,33
2023-03-31T15:13:10.623Z,25
2023-03-31T15:14:22.519Z,29
2023-03-31T15:15:35.116Z,31
2023-03-31T15:16:42.624Z,28
2023-03-31T15:17:48.602Z,25
2023-03-31T15:18:55.518Z,29
2023-03-31T15:20:02.369Z,30
2023-03-31T15:21:19.319Z,25
2023-03-31T15:22:26.070Z,26
2023-03-31T15:23:33.004Z,26
2023-03-31T15:24:39.748Z,27
2023-03-31T15:25:46.526Z,25
2023-03-31T15:26:53.386Z,25
2023-03-31T15:28:02.828Z,30
2023-03-31T15:29:09.602Z,30
2023-03-31T15:30:16.500Z,26
2023-03-31T15:31:23.399Z,27
2023-03-31T15:32:30.213Z,32
2023-03-31T15:33:39.684Z,25
2023-03-31T15:34:46.447Z,32
2023-03-31T15:35:53.219Z,30
2023-03-31T15:37:00.077Z,29
2023-03-31T15:38:07.079Z,35
2023-03-31T15:39:13.839Z,30
2023-03-31T15:40:20.613Z,26
2023-03-31T15:41:27.417Z,25
2023-03-31T15:42:35.801Z,33
2023-03-31T15:43:41.117Z,29
2023-03-31T15:44:50.796Z,25
2023-03-31T15:45:57.626Z,30
2023-03-31T15:47:04.338Z,26
2023-03-31T15:48:21.286Z,32
2023-03-31T15:49:33.154Z,27
2023-03-31T15:50:40.062Z,30
2023-03-31T15:51:46.910Z,30
2023-03-31T15:52:53.713Z,30
2023-03-31T15:54:00.488Z,32
2023-03-31T15:55:07.349Z,25
2023-03-31T15:56:24.204Z,25
2023-03-31T15:57:38.833Z,28
2023-03-31T15:58:45.645Z,28
2023-03-31T15:59:57.811Z,29
2023-03-31T16:01:04.576Z,31
2023-03-31T16:02:11.345Z,27
2023-03-31T16:03:24.123Z,27
2023-03-31T16:04:30.159Z,27
2023-03-31T16:05:40.544Z,31
2023-03-31T16:06:44.097Z,29
2023-03-31T16:07:55.886Z,31
2023-03-31T16:09:02.677Z,30
2023-03-31T16:10:09.451Z,34
2023-03-31T16:11:24.006Z,32
2023-03-31T16:12:35.828Z,35
2023-03-31T16:13:45.385Z,34
2023-03-31T16:14:54.932Z,28
2023-03-31T16:16:01.689Z,26
2023-03-31T16:17:08.573Z,27
2023-03-31T16:18:15.407Z,26
2023-03-31T16:19:22.475Z,38
2023-03-31T16:20:29.248Z,35